^^
Station Historical Data
 
Daily Summary for December 12, 2018 Units:  English    Metric   Both
« Previous Day
Next Day »
Daily Weekly Monthly Yearly Custom
  Current: High: Low: Average:
Temperature: 34.9 °F 37.3 °F 19.9 °F 27.6 °F
Dew Point: 30.8 °F 31.1 °F 18.2 °F 24.1 °F
Humidity: 85% 93% 70% 87%
Wind Speed: 3mph 14mph 2mph 6.8mph
Wind Gust: 6mph 16mph - -
WindSSE - - SE
Pressure: 29.59 in 29.73 in 29.51 in -
Precipitation: 0 in      
Historical Graphs
 
 
Tabular Data for December 12, 2018
Time Temperature Dew Point Pressure Wind Wind Speed Wind Gust Humidity Rainfall Rate (Hourly) solar Conditions
00:04 25.2 °F 22.9 °F 29.73 in South 3 mph 3 mph 91% 0 in 0.00 W/m2
00:09 25.1 °F 22.8 °F 29.73 in South 2 mph 3 mph 91% 0 in 0.00 W/m2
00:14 24.9 °F 22.6 °F 29.73 in SE 3 mph 4 mph 91% 0 in 0.00 W/m2
00:19 24.6 °F 22.3 °F 29.72 in ESE 4 mph 5 mph 91% 0 in 0.00 W/m2
00:24 24.1 °F 21.6 °F 29.72 in ESE 5 mph 5 mph 90% 0 in 0.00 W/m2
00:29 23.7 °F 21.2 °F 29.72 in ESE 4 mph 5 mph 90% 0 in 0.00 W/m2
00:34 23.3 °F 20.8 °F 29.72 in ESE 5 mph 7 mph 90% 0 in 0.00 W/m2
00:39 23 °F 20.8 °F 29.72 in ESE 5 mph 7 mph 91% 0 in 0.00 W/m2
00:44 23 °F 20.8 °F 29.72 in SE 5 mph 7 mph 91% 0 in 0.00 W/m2
00:49 22.9 °F 20.7 °F 29.71 in ESE 5 mph 5 mph 91% 0 in 0.00 W/m2
00:54 23 °F 21 °F 29.71 in SE 5 mph 7 mph 92% 0 in 0.00 W/m2
00:59 22.8 °F 20.8 °F 29.71 in SE 4 mph 7 mph 92% 0 in 0.00 W/m2
01:04 22.5 °F 20.5 °F 29.71 in SE 5 mph 6 mph 92% 0 in 0.00 W/m2
01:09 22.4 °F 20.4 °F 29.70 in SE 5 mph 5 mph 92% 0 in 0.00 W/m2
01:14 22.6 °F 20.6 °F 29.70 in SE 5 mph 6 mph 92% 0 in 0.00 W/m2
01:19 22.7 °F 20.7 °F 29.70 in ESE 4 mph 6 mph 92% 0 in 0.00 W/m2
01:24 22.5 °F 20.5 °F 29.70 in ESE 5 mph 7 mph 92% 0 in 0.00 W/m2
01:29 22.3 °F 20.3 °F 29.70 in SE 5 mph 7 mph 92% 0 in 0.00 W/m2
01:34 22.1 °F 20.1 °F 29.70 in ESE 5 mph 7 mph 92% 0 in 0.00 W/m2
01:39 22.2 °F 20.5 °F 29.69 in ESE 5 mph 7 mph 93% 0 in 0.00 W/m2
01:44 22.2 °F 20.5 °F 29.69 in SE 5 mph 7 mph 93% 0 in 0.00 W/m2
01:49 22.3 °F 20.6 °F 29.69 in SE 5 mph 7 mph 93% 0 in 0.00 W/m2
01:54 22.5 °F 20.8 °F 29.69 in SE 5 mph 7 mph 93% 0 in 0.00 W/m2
01:59 22.7 °F 21 °F 29.68 in SE 5 mph 6 mph 93% 0 in 0.00 W/m2
02:04 22.6 °F 20.9 °F 29.68 in ESE 4 mph 6 mph 93% 0 in 0.00 W/m2
02:09 22.4 °F 20.4 °F 29.68 in SE 4 mph 7 mph 92% 0 in 0.00 W/m2
02:14 22.4 °F 20.7 °F 29.68 in SE 4 mph 7 mph 93% 0 in 0.00 W/m2
02:19 22.2 °F 20.2 °F 29.67 in ESE 5 mph 5 mph 92% 0 in 0.00 W/m2
02:24 22.1 °F 20.1 °F 29.67 in SE 5 mph 7 mph 92% 0 in 0.00 W/m2
02:29 22.2 °F 20.5 °F 29.67 in ESE 4 mph 7 mph 93% 0 in 0.00 W/m2
02:34 22.3 °F 20.6 °F 29.67 in ESE 7 mph 7 mph 93% 0 in 0.00 W/m2
02:39 22.1 °F 20.4 °F 29.67 in SE 6 mph 8 mph 93% 0 in 0.00 W/m2
02:44 22 °F 20.3 °F 29.66 in ESE 7 mph 9 mph 93% 0 in 0.00 W/m2
02:49 22.1 °F 20.4 °F 29.66 in ESE 8 mph 9 mph 93% 0 in 0.00 W/m2
02:54 22.2 °F 20.5 °F 29.66 in ESE 7 mph 9 mph 93% 0 in 0.00 W/m2
02:59 22.2 °F 20.5 °F 29.66 in SE 5 mph 9 mph 93% 0 in 0.00 W/m2
03:04 22.2 °F 20.5 °F 29.66 in ESE 5 mph 9 mph 93% 0 in 0.00 W/m2
03:09 21.6 °F 19.6 °F 29.66 in SE 7 mph 8 mph 92% 0 in 0.00 W/m2
03:14 21.4 °F 19.7 °F 29.66 in SE 7 mph 8 mph 93% 0 in 0.00 W/m2
03:19 21.6 °F 19.9 °F 29.65 in SE 7 mph 8 mph 93% 0 in 0.00 W/m2
03:24 21.7 °F 20 °F 29.65 in ESE 7 mph 7 mph 93% 0 in 0.00 W/m2
03:29 21.5 °F 19.8 °F 29.65 in ESE 5 mph 7 mph 93% 0 in 0.00 W/m2
03:34 21.1 °F 19.4 °F 29.66 in ESE 7 mph 7 mph 93% 0 in 0.00 W/m2
03:39 20.8 °F 19.1 °F 29.65 in ESE 4 mph 7 mph 93% 0 in 0.00 W/m2
03:44 20.8 °F 19.1 °F 29.65 in ESE 5 mph 7 mph 93% 0 in 0.00 W/m2
03:49 20.7 °F 19 °F 29.65 in ESE 7 mph 8 mph 93% 0 in 0.00 W/m2
03:54 20.6 °F 18.9 °F 29.65 in ESE 8 mph 8 mph 93% 0 in 0.00 W/m2
03:59 20.6 °F 18.9 °F 29.65 in ESE 7 mph 9 mph 93% 0 in 0.00 W/m2
04:04 20.6 °F 18.9 °F 29.64 in ESE 5 mph 9 mph 93% 0 in 0.00 W/m2
04:09 20.5 °F 18.8 °F 29.64 in East 7 mph 8 mph 93% 0 in 0.00 W/m2
04:14 20.4 °F 18.7 °F 29.64 in East 7 mph 8 mph 93% 0 in 0.00 W/m2
04:19 20.2 °F 18.5 °F 29.64 in East 7 mph 8 mph 93% 0 in 0.00 W/m2
04:24 19.9 °F 18.2 °F 29.64 in ESE 8 mph 9 mph 93% 0 in 0.00 W/m2
04:29 19.9 °F 18.2 °F 29.63 in East 10 mph 10 mph 93% 0 in 0.00 W/m2
04:34 20 °F 18.3 °F 29.63 in ESE 9 mph 10 mph 93% 0 in 0.00 W/m2
04:39 20.2 °F 18.5 °F 29.63 in ESE 7 mph 10 mph 93% 0 in 0.00 W/m2
04:44 20.5 °F 18.8 °F 29.63 in ESE 8 mph 9 mph 93% 0 in 0.00 W/m2
04:49 20.8 °F 19.1 °F 29.62 in ESE 9 mph 10 mph 93% 0 in 0.00 W/m2
04:54 20.9 °F 19.2 °F 29.62 in ESE 7 mph 10 mph 93% 0 in 0.00 W/m2
04:59 20.9 °F 19.2 °F 29.62 in ESE 7 mph 10 mph 93% 0 in 0.00 W/m2
05:04 20.8 °F 19.1 °F 29.61 in ESE 10 mph 10 mph 93% 0 in 0.00 W/m2
05:09 20.7 °F 19 °F 29.61 in ESE 8 mph 10 mph 93% 0 in 0.00 W/m2
05:14 20.7 °F 18.7 °F 29.60 in ESE 10 mph 11 mph 92% 0 in 0.00 W/m2
05:19 20.6 °F 18.6 °F 29.60 in ESE 9 mph 11 mph 92% 0 in 0.00 W/m2
05:24 20.7 °F 18.7 °F 29.60 in ESE 9 mph 11 mph 92% 0 in 0.00 W/m2
05:29 20.7 °F 19 °F 29.60 in ESE 9 mph 11 mph 93% 0 in 0.00 W/m2
05:34 20.8 °F 19.1 °F 29.60 in ESE 9 mph 11 mph 93% 0 in 0.00 W/m2
05:39 20.9 °F 18.9 °F 29.59 in East 9 mph 11 mph 92% 0 in 0.00 W/m2
05:44 20.8 °F 18.8 °F 29.59 in ESE 8 mph 12 mph 92% 0 in 0.00 W/m2
05:49 20.8 °F 18.8 °F 29.59 in ESE 11 mph 12 mph 92% 0 in 0.00 W/m2
05:54 20.8 °F 18.8 °F 29.59 in East 10 mph 13 mph 92% 0 in 0.00 W/m2
05:59 20.9 °F 18.9 °F 29.59 in ESE 10 mph 13 mph 92% 0 in 0.00 W/m2
06:04 21 °F 19 °F 29.59 in ESE 11 mph 12 mph 92% 0 in 0.00 W/m2
06:09 21.3 °F 19.3 °F 29.59 in ESE 8 mph 12 mph 92% 0 in 0.00 W/m2
06:14 21.3 °F 19.3 °F 29.59 in ESE 7 mph 11 mph 92% 0 in 0.00 W/m2
06:19 21 °F 19 °F 29.59 in SE 9 mph 11 mph 92% 0 in 0.00 W/m2
06:24 20.9 °F 18.9 °F 29.58 in ESE 9 mph 11 mph 92% 0 in 0.00 W/m2
06:29 20.8 °F 18.6 °F 29.58 in SE 8 mph 11 mph 91% 0 in 0.00 W/m2
06:34 20.7 °F 18.7 °F 29.58 in SE 5 mph 11 mph 92% 0 in 0.00 W/m2
06:39 20.7 °F 18.7 °F 29.58 in SE 6 mph 10 mph 92% 0 in 0.00 W/m2
06:44 20.6 °F 18.6 °F 29.58 in ESE 7 mph 10 mph 92% 0 in 0.00 W/m2
06:49 20.5 °F 18.3 °F 29.58 in SE 8 mph 10 mph 91% 0 in 0.00 W/m2
06:54 20.7 °F 18.7 °F 29.58 in ESE 10 mph 11 mph 92% 0 in 0.00 W/m2
06:59 20.8 °F 18.8 °F 29.58 in ESE 8 mph 11 mph 92% 0 in 0.00 W/m2
07:04 21 °F 19 °F 29.57 in SE 8 mph 11 mph 92% 0 in 0.00 W/m2
07:09 21.2 °F 19.2 °F 29.58 in ESE 9 mph 12 mph 92% 0 in 0.00 W/m2
07:14 21.3 °F 19.3 °F 29.58 in SE 9 mph 12 mph 92% 0 in 0.00 W/m2
07:19 21.5 °F 19.5 °F 29.58 in ESE 7 mph 11 mph 92% 0 in 0.00 W/m2
07:24 21.4 °F 19.4 °F 29.58 in SE 5 mph 10 mph 92% 0 in 0.00 W/m2
07:29 21.4 °F 19.4 °F 29.58 in ESE 7 mph 10 mph 92% 0 in 0.00 W/m2
07:34 21.6 °F 19.6 °F 29.57 in ESE 9 mph 11 mph 92% 0 in 0.00 W/m2
07:39 21.6 °F 19.6 °F 29.56 in ESE 10 mph 11 mph 92% 0 in 0.00 W/m2
07:44 22 °F 20 °F 29.57 in ESE 11 mph 12 mph 92% 0 in 0.00 W/m2
07:49 22.2 °F 20.2 °F 29.57 in ESE 8 mph 12 mph 92% 0 in 0.00 W/m2
07:54 22.6 °F 20.6 °F 29.57 in SE 8 mph 11 mph 92% 0 in 0.00 W/m2
07:59 22.8 °F 20.8 °F 29.56 in East 8 mph 11 mph 92% 0 in 0.00 W/m2
08:04 23.1 °F 21.1 °F 29.56 in ESE 8 mph 11 mph 92% 0 in 0.00 W/m2
08:09 23.2 °F 21.2 °F 29.56 in ESE 8 mph 11 mph 92% 0 in 5.00 W/m2
08:14 23.4 °F 21.4 °F 29.56 in ESE 7 mph 12 mph 92% 0 in 9.00 W/m2
08:19 23.5 °F 21.5 °F 29.55 in ESE 9 mph 12 mph 92% 0 in 7.00 W/m2
08:24 23.5 °F 21.3 °F 29.56 in East 6 mph 12 mph 91% 0 in 7.00 W/m2
08:29 23.5 °F 21.3 °F 29.55 in ESE 9 mph 12 mph 91% 0 in 7.00 W/m2
08:34 23.6 °F 21.4 °F 29.55 in ESE 11 mph 12 mph 91% 0 in 7.00 W/m2
08:39 23.8 °F 21.6 °F 29.56 in East 8 mph 12 mph 91% 0 in 7.00 W/m2
08:44 23.9 °F 21.7 °F 29.56 in ESE 9 mph 11 mph 91% 0 in 7.00 W/m2
08:49 24 °F 21.8 °F 29.56 in ESE 8 mph 11 mph 91% 0 in 11.00 W/m2
08:54 24.2 °F 22 °F 29.56 in ESE 10 mph 12 mph 91% 0 in 16.00 W/m2
08:59 24.3 °F 22.1 °F 29.55 in ESE 10 mph 13 mph 91% 0 in 21.00 W/m2
09:04 24.5 °F 22.2 °F 29.55 in ESE 9 mph 13 mph 91% 0 in 25.00 W/m2
09:09 24.6 °F 22.3 °F 29.56 in ESE 12 mph 12 mph 91% 0 in 28.00 W/m2
09:14 24.9 °F 22.6 °F 29.55 in SE 8 mph 12 mph 91% 0 in 32.00 W/m2
09:19 25.2 °F 23.2 °F 29.56 in SE 7 mph 12 mph 92% 0 in 39.00 W/m2
09:24 25.4 °F 23.1 °F 29.56 in SE 8 mph 11 mph 91% 0 in 44.00 W/m2
09:29 25.7 °F 23.4 °F 29.56 in ESE 7 mph 11 mph 91% 0 in 44.00 W/m2
09:34 25.8 °F 23.5 °F 29.57 in ESE 5 mph 11 mph 91% 0 in 47.00 W/m2
09:39 26 °F 23.7 °F 29.57 in SE 5 mph 9 mph 91% 0 in 49.00 W/m2
09:44 26 °F 23.7 °F 29.57 in ESE 7 mph 8 mph 91% 0 in 54.00 W/m2
09:49 26.2 °F 23.9 °F 29.58 in SE 5 mph 8 mph 91% 0 in 53.00 W/m2
09:54 26.3 °F 24 °F 29.58 in SE 4 mph 7 mph 91% 0 in 54.00 W/m2
09:59 26.4 °F 24.1 °F 29.57 in SE 6 mph 7 mph 91% 0 in 70.00 W/m2
10:04 26.6 °F 24.3 °F 29.57 in ESE 5 mph 8 mph 91% 0 in 116.00 W/m2
10:09 26.8 °F 24.3 °F 29.56 in ESE 5 mph 9 mph 90% 0 in 120.00 W/m2
10:14 26.9 °F 24.4 °F 29.56 in East 7 mph 10 mph 90% 0 in 128.00 W/m2
10:19 27.1 °F 24.6 °F 29.55 in SE 6 mph 12 mph 90% 0 in 141.00 W/m2
10:24 27.3 °F 24.8 °F 29.56 in ESE 7 mph 12 mph 90% 0 in 160.00 W/m2
10:29 27.8 °F 25.2 °F 29.56 in SE 6 mph 10 mph 90% 0 in 178.00 W/m2
10:34 28.1 °F 25.5 °F 29.56 in SE 9 mph 10 mph 90% 0 in 167.00 W/m2
10:39 28.5 °F 25.9 °F 29.55 in ESE 7 mph 10 mph 90% 0 in 163.00 W/m2
10:44 28.9 °F 26.1 °F 29.56 in SE 9 mph 10 mph 89% 0 in 151.00 W/m2
10:49 29.2 °F 26.4 °F 29.56 in SE 9 mph 10 mph 89% 0 in 142.00 W/m2
10:54 29.5 °F 26.4 °F 29.56 in SE 7 mph 11 mph 88% 0 in 134.00 W/m2
10:59 29.9 °F 26.8 °F 29.55 in SE 12 mph 13 mph 88% 0 in 121.00 W/m2
11:04 30.3 °F 26.9 °F 29.55 in SE 9 mph 14 mph 87% 0 in 113.00 W/m2
11:09 30.5 °F 26.8 °F 29.55 in SE 9 mph 14 mph 86% 0 in 113.00 W/m2
11:14 30.8 °F 26.8 °F 29.55 in SE 13 mph 15 mph 85% 0 in 142.00 W/m2
11:19 31.1 °F 27.1 °F 29.55 in SE 12 mph 16 mph 85% 0 in 188.00 W/m2
11:24 31.4 °F 27.1 °F 29.54 in SE 14 mph 16 mph 84% 0 in 200.00 W/m2
11:29 31.7 °F 27.4 °F 29.54 in SSE 11 mph 15 mph 84% 0 in 171.00 W/m2
11:34 32.1 °F 27.8 °F 29.55 in SSE 7 mph 15 mph 84% 0 in 216.00 W/m2
11:39 32.6 °F 28.3 °F 29.54 in SSE 9 mph 14 mph 84% 0 in 221.00 W/m2
11:44 33 °F 28.4 °F 29.54 in SE 7 mph 13 mph 83% 0 in 216.00 W/m2
11:49 33.5 °F 28.6 °F 29.54 in SE 10 mph 13 mph 82% 0 in 204.00 W/m2
11:54 34 °F 28.8 °F 29.53 in South 9 mph 12 mph 81% 0 in 236.00 W/m2
11:59 34.7 °F 28.9 °F 29.53 in South 7 mph 11 mph 79% 0 in 283.00 W/m2
12:04 35.6 °F 29.1 °F 29.52 in SSE 8 mph 12 mph 77% 0 in 309.00 W/m2
12:09 36.2 °F 29 °F 29.53 in SSE 9 mph 12 mph 75% 0 in 348.00 W/m2
12:14 36.6 °F 29.1 °F 29.53 in SSE 9 mph 13 mph 74% 0 in 214.00 W/m2
12:19 36.6 °F 28.8 °F 29.53 in South 11 mph 15 mph 73% 0 in 204.00 W/m2
12:24 36.8 °F 28.6 °F 29.53 in South 12 mph 16 mph 72% 0 in 207.00 W/m2
12:29 37.1 °F 28.9 °F 29.52 in South 11 mph 16 mph 72% 0 in 246.00 W/m2
12:34 37.2 °F 28.3 °F 29.52 in South 9 mph 15 mph 70% 0 in 230.00 W/m2
12:39 37.3 °F 28.4 °F 29.52 in South 9 mph 15 mph 70% 0 in 190.00 W/m2
12:44 37.3 °F 28.4 °F 29.52 in SSE 9 mph 13 mph 70% 0 in 185.00 W/m2
12:49 37.1 °F 28.2 °F 29.52 in SSE 12 mph 15 mph 70% 0 in 192.00 W/m2
12:54 36.8 °F 28.3 °F 29.52 in SSE 12 mph 16 mph 71% 0 in 206.00 W/m2
12:59 36.6 °F 28.1 °F 29.52 in SSE 10 mph 16 mph 71% 0 in 204.00 W/m2
13:04 36.6 °F 28.4 °F 29.52 in SSE 6 mph 16 mph 72% 0 in 195.00 W/m2
13:09 36.6 °F 28.4 °F 29.52 in South 10 mph 16 mph 72% 0 in 176.00 W/m2
13:14 36.6 °F 29.7 °F 29.52 in South 11 mph 15 mph 76% 0 in 139.00 W/m2
13:19 36.4 °F 28.2 °F 29.52 in SSE 11 mph 15 mph 72% 0 in 105.00 W/m2
13:24 36.3 °F 28.5 °F 29.52 in South 14 mph 15 mph 73% 0 in 95.00 W/m2
13:29 36.2 °F 28.7 °F 29.52 in South 6 mph 15 mph 74% 0 in 79.00 W/m2
13:34 36.1 °F 28.6 °F 29.51 in SSE 6 mph 14 mph 74% 0 in 77.00 W/m2
13:39 36 °F 28.5 °F 29.51 in South 4 mph 12 mph 74% 0 in 79.00 W/m2
13:44 35.9 °F 28.7 °F 29.51 in SSE 6 mph 12 mph 75% 0 in 83.00 W/m2
13:49 35.9 °F 29.1 °F 29.51 in SSE 5 mph 8 mph 76% 0 in 88.00 W/m2
13:54 35.9 °F 29.1 °F 29.51 in SSE 8 mph 9 mph 76% 0 in 84.00 W/m2
13:59 35.8 °F 29 °F 29.51 in SSE 5 mph 9 mph 76% 0 in 77.00 W/m2
14:04 35.7 °F 29.2 °F 29.52 in South 5 mph 8 mph 77% 0 in 76.00 W/m2
14:09 35.7 °F 29.5 °F 29.52 in South 5 mph 8 mph 78% 0 in 70.00 W/m2
14:14 35.6 °F 29.4 °F 29.52 in South 4 mph 8 mph 78% 0 in 63.00 W/m2
14:19 35.4 °F 29.5 °F 29.52 in SSE 6 mph 10 mph 79% 0 in 62.00 W/m2
14:24 35.4 °F 29.5 °F 29.52 in South 7 mph 11 mph 79% 0 in 65.00 W/m2
14:29 35.3 °F 29.7 °F 29.52 in South 8 mph 12 mph 80% 0 in 70.00 W/m2
14:34 35.3 °F 29.7 °F 29.52 in South 8 mph 12 mph 80% 0 in 76.00 W/m2
14:39 35.3 °F 29.7 °F 29.52 in South 5 mph 12 mph 80% 0 in 74.00 W/m2
14:44 35.4 °F 29.8 °F 29.52 in SSE 6 mph 10 mph 80% 0 in 76.00 W/m2
14:49 35.4 °F 29.8 °F 29.52 in South 5 mph 10 mph 80% 0 in 72.00 W/m2
14:54 35.5 °F 29.9 °F 29.53 in SSE 3 mph 8 mph 80% 0 in 72.00 W/m2
14:59 35.6 °F 30 °F 29.52 in SSE 3 mph 8 mph 80% 0 in 84.00 W/m2
15:04 35.7 °F 30.1 °F 29.52 in SSE 6 mph 8 mph 80% 0 in 81.00 W/m2
15:09 35.7 °F 30.1 °F 29.53 in South 6 mph 8 mph 80% 0 in 67.00 W/m2
15:14 35.8 °F 30.2 °F 29.53 in SSE 4 mph 8 mph 80% 0 in 56.00 W/m2
15:19 35.9 °F 30.3 °F 29.53 in South 6 mph 8 mph 80% 0 in 56.00 W/m2
15:24 36 °F 30.4 °F 29.54 in South 6 mph 8 mph 80% 0 in 60.00 W/m2
15:29 36.1 °F 30.2 °F 29.54 in SSW 2 mph 8 mph 79% 0 in 63.00 W/m2
15:34 36.2 °F 30.3 °F 29.55 in South 3 mph 6 mph 79% 0 in 69.00 W/m2
15:39 36.4 °F 30.5 °F 29.55 in South 3 mph 5 mph 79% 0 in 76.00 W/m2
15:44 36.5 °F 30.6 °F 29.55 in South 3 mph 5 mph 79% 0 in 74.00 W/m2
15:49 36.6 °F 30.7 °F 29.55 in South 2 mph 4 mph 79% 0 in 81.00 W/m2
15:54 36.7 °F 30.8 °F 29.55 in SSW 2 mph 5 mph 79% 0 in 84.00 W/m2
15:59 36.8 °F 30.9 °F 29.55 in South 4 mph 5 mph 79% 0 in 65.00 W/m2
16:04 36.8 °F 30.9 °F 29.55 in South 4 mph 5 mph 79% 0 in 49.00 W/m2
16:09 36.7 °F 30.8 °F 29.55 in South 4 mph 5 mph 79% 0 in 35.00 W/m2
16:14 36.7 °F 30.8 °F 29.56 in South 3 mph 5 mph 79% 0 in 26.00 W/m2
16:19 36.7 °F 30.8 °F 29.56 in South 4 mph 5 mph 79% 0 in 25.00 W/m2
16:24 36.6 °F 30.7 °F 29.56 in SSE 4 mph 5 mph 79% 0 in 21.00 W/m2
16:29 36.5 °F 30.9 °F 29.56 in SSE 5 mph 6 mph 80% 0 in 14.00 W/m2
16:34 36.3 °F 30.7 °F 29.57 in SE 6 mph 6 mph 80% 0 in 9.00 W/m2
16:39 36.2 °F 30.9 °F 29.57 in SE 4 mph 6 mph 81% 0 in 7.00 W/m2
16:44 36.2 °F 30.9 °F 29.57 in SSE 4 mph 6 mph 81% 0 in 5.00 W/m2
16:49 36.1 °F 30.8 °F 29.57 in SE 5 mph 6 mph 81% 0 in 5.00 W/m2
16:54 36.1 °F 31.1 °F 29.57 in SE 5 mph 6 mph 82% 0 in 0.00 W/m2
16:59 36.1 °F 31.1 °F 29.57 in SE 4 mph 6 mph 82% 0 in 0.00 W/m2
17:04 35.9 °F 30.9 °F 29.58 in SSE 4 mph 6 mph 82% 0 in 0.00 W/m2
17:09 35.8 °F 30.8 °F 29.57 in SSE 4 mph 6 mph 82% 0 in 0.00 W/m2
17:14 35.7 °F 31 °F 29.57 in SE 4 mph 6 mph 83% 0 in 0.00 W/m2
17:19 35.7 °F 31 °F 29.58 in ESE 3 mph 5 mph 83% 0 in 0.00 W/m2
17:24 35.6 °F 30.9 °F 29.58 in ESE 3 mph 5 mph 83% 0 in 0.00 W/m2
17:29 35.5 °F 30.8 °F 29.57 in ESE 4 mph 5 mph 83% 0 in 0.00 W/m2
17:34 35.4 °F 31 °F 29.58 in ESE 4 mph 6 mph 84% 0 in 0.00 W/m2
17:39 35.1 °F 30.8 °F 29.59 in SE 4 mph 6 mph 84% 0 in 0.00 W/m2
17:44 34.9 °F 30.8 °F 29.59 in SSE 3 mph 6 mph 85% 0 in 0.00 W/m2
Bismarck, North Dakota, USA
Compliments of Weather Underground - 4 mb